Time;durP1;ratioP1;P1;durP2;ratioP2;P2;SDS_P1;SDS_P2;PMS_P1;PMS_P2;Temp;Humidity;BMP_temperature;BMP_pressure;BME280_temperature;BME280_humidity;BME280_pressure;Samples;Min_cycle;Max_cycle;Signal;HPM_P1;HPM_P2
2022/06/02 00:00:16;;;;;;;8.35;7.20;;;15.90;99.90;;;;;;5018845;28;20296;-71
2022/06/02 00:03:23;;;;;;;11.98;7.43;;;15.80;99.90;;;;;;5010324;28;26134;-70
2022/06/02 00:06:23;;;;;;;11.50;6.85;;;15.70;99.90;;;;;;5014246;28;20221;-69
2022/06/02 00:09:23;;;;;;;7.72;7.00;;;15.70;99.90;;;;;;5016788;28;20300;-70
2022/06/02 00:12:24;;;;;;;9.60;7.10;;;15.70;99.90;;;;;;5013623;28;20735;-68
2022/06/02 00:15:26;;;;;;;11.13;7.32;;;15.70;99.90;;;;;;5027039;28;20668;-70
2022/06/02 00:18:29;;;;;;;9.43;6.80;;;15.70;99.90;;;;;;5008102;28;20220;-71
2022/06/02 00:21:27;;;;;;;9.23;7.00;;;15.70;99.90;;;;;;4999042;28;20223;-69
2022/06/02 00:24:29;;;;;;;11.48;7.35;;;15.70;99.90;;;;;;5013106;28;20236;-69
2022/06/02 00:27:26;;;;;;;11.30;6.88;;;15.60;99.90;;;;;;5030177;28;20335;-69
2022/06/02 00:30:24;;;;;;;9.80;7.35;;;15.50;99.90;;;;;;4997478;28;20867;-69
2022/06/02 00:33:24;;;;;;;8.98;7.30;;;15.40;99.90;;;;;;5009653;28;20347;-69
2022/06/02 00:36:18;;;;;;;10.30;7.00;;;15.50;99.90;;;;;;5012026;28;20667;-70
2022/06/02 00:39:08;;;;;;;9.77;6.78;;;15.50;99.90;;;;;;5010342;28;20745;-69
2022/06/02 00:42:19;;;;;;;10.75;6.93;;;15.50;99.90;;;;;;5000792;28;20226;-70
2022/06/02 00:45:10;;;;;;;10.70;7.15;;;15.50;99.90;;;;;;5010046;28;20827;-70
2022/06/02 00:48:17;;;;;;;8.40;6.70;;;15.50;99.90;;;;;;5014646;28;22306;-70
2022/06/02 00:51:10;;;;;;;8.20;6.43;;;15.50;99.90;;;;;;5015266;28;20308;-70
2022/06/02 00:57:31;;;;;;;8.48;6.18;;;15.50;99.90;;;;;;5029350;28;20241;-70
2022/06/02 01:00:23;;;;;;;7.78;6.18;;;15.50;99.90;;;;;;5004765;28;20225;-69
2022/06/02 01:03:15;;;;;;;8.50;6.40;;;15.50;99.90;;;;;;5016876;28;20229;-70
2022/06/02 01:06:23;;;;;;;7.72;6.50;;;15.50;99.90;;;;;;5009066;28;20550;-71
2022/06/02 01:09:33;;;;;;;8.63;5.68;;;15.50;99.90;;;;;;4998206;28;20225;-71
2022/06/02 01:12:42;;;;;;;8.00;5.40;;;15.60;99.90;;;;;;5015585;28;20225;-70
2022/06/02 01:15:42;;;;;;;6.22;5.22;;;15.70;99.90;;;;;;5014224;28;20223;-70
2022/06/02 01:18:40;;;;;;;5.68;5.00;;;15.70;99.90;;;;;;5025140;28;20420;-72
2022/06/02 01:21:59;;;;;;;8.25;5.75;;;15.70;99.90;;;;;;5011729;28;20220;-71
2022/06/02 01:25:23;;;;;;;5.80;4.93;;;15.70;99.90;;;;;;5012266;28;20328;-71
2022/06/02 01:28:40;;;;;;;10.30;5.13;;;15.70;99.90;;;;;;5008927;28;20283;-70
2022/06/02 01:31:40;;;;;;;10.32;5.30;;;15.80;99.90;;;;;;5008141;28;20344;-70
2022/06/02 01:34:40;;;;;;;6.53;5.47;;;15.80;99.90;;;;;;5016978;28;20221;-72
2022/06/02 01:37:35;;;;;;;7.78;5.35;;;15.80;99.90;;;;;;5003896;28;20938;-70
2022/06/02 01:40:32;;;;;;;7.53;5.60;;;15.80;99.90;;;;;;5015059;28;20225;-71
2022/06/02 01:43:31;;;;;;;7.63;5.28;;;15.70;99.90;;;;;;5028467;28;20222;-72
2022/06/02 01:46:54;;;;;;;6.57;5.25;;;15.70;99.90;;;;;;4999137;28;20249;-72
2022/06/02 01:50:18;;;;;;;7.43;5.50;;;15.60;99.90;;;;;;4995148;28;20259;-71
2022/06/02 01:53:18;;;;;;;7.07;5.25;;;15.60;99.90;;;;;;4988192;28;20712;-70
2022/06/02 01:56:25;;;;;;;6.55;5.28;;;15.60;99.90;;;;;;4997336;28;20234;-71
2022/06/02 01:59:35;;;;;;;6.50;5.53;;;15.60;99.90;;;;;;4998525;28;20221;-72
2022/06/02 02:02:32;;;;;;;7.97;5.53;;;15.50;99.90;;;;;;4996608;28;20752;-71
2022/06/02 02:05:42;;;;;;;7.20;5.55;;;15.60;99.90;;;;;;4996970;28;20890;-71
2022/06/02 02:09:02;;;;;;;8.15;5.85;;;15.60;99.90;;;;;;4999733;28;20218;-71
2022/06/02 02:11:53;;;;;;;7.43;5.65;;;15.60;99.90;;;;;;5000232;28;20358;-71
2022/06/02 02:14:54;;;;;;;6.38;5.72;;;15.60;99.90;;;;;;5001372;28;20761;-71
2022/06/02 02:17:58;;;;;;;8.07;5.50;;;15.70;99.90;;;;;;4999596;28;20989;-69
2022/06/02 02:21:04;;;;;;;6.50;4.97;;;15.70;99.90;;;;;;4992384;28;20755;-70
2022/06/02 02:24:02;;;;;;;5.60;4.93;;;15.70;99.90;;;;;;5000776;28;20728;-69
2022/06/02 02:26:57;;;;;;;6.15;5.10;;;15.70;99.90;;;;;;4991527;28;20261;-71
2022/06/02 02:29:56;;;;;;;7.53;5.00;;;15.70;99.90;;;;;;4995716;28;20230;-71
2022/06/02 02:32:56;;;;;;;8.10;5.57;;;15.70;99.90;;;;;;4994666;28;20609;-71
2022/06/02 02:35:55;;;;;;;5.13;4.57;;;15.70;99.90;;;;;;5001683;28;20222;-71
2022/06/02 02:38:54;;;;;;;6.82;4.90;;;15.80;99.90;;;;;;4995465;28;20229;-74
2022/06/02 02:41:48;;;;;;;7.65;6.18;;;15.80;99.90;;;;;;4992564;28;20218;-71
2022/06/02 02:44:44;;;;;;;8.38;5.60;;;15.80;99.90;;;;;;4989962;28;20308;-70
2022/06/02 02:47:40;;;;;;;7.47;6.20;;;15.70;99.90;;;;;;5015937;28;20717;-70
2022/06/02 02:50:33;;;;;;;9.18;7.03;;;15.70;99.90;;;;;;5016785;28;20549;-72
2022/06/02 02:53:29;;;;;;;10.27;7.25;;;15.70;99.90;;;;;;5001345;28;20221;-71
2022/06/02 02:56:27;;;;;;;10.05;7.38;;;15.60;99.90;;;;;;5013489;28;20283;-70
2022/06/02 02:59:23;;;;;;;9.05;7.40;;;15.60;99.90;;;;;;5015435;28;20320;-69
2022/06/02 03:02:20;;;;;;;9.90;7.20;;;15.50;99.90;;;;;;5020088;28;20716;-71
2022/06/02 03:05:16;;;;;;;9.65;7.93;;;15.40;99.90;;;;;;5015478;28;20229;-71
2022/06/02 03:08:11;;;;;;;8.90;6.80;;;15.40;99.90;;;;;;5017415;28;20224;-70
2022/06/02 03:11:11;;;;;;;9.90;7.97;;;15.30;99.90;;;;;;5021387;28;20232;-70
2022/06/02 03:14:10;;;;;;;10.68;7.40;;;15.30;99.90;;;;;;5021866;28;20209;-72
2022/06/02 03:17:09;;;;;;;8.45;7.30;;;15.20;99.90;;;;;;5027754;28;20229;-71
2022/06/02 03:20:03;;;;;;;8.60;7.53;;;15.20;99.90;;;;;;5022204;28;20335;-70
2022/06/02 03:23:06;;;;;;;9.55;7.10;;;15.20;99.90;;;;;;5016153;28;20905;-70
2022/06/02 03:26:01;;;;;;;9.07;7.18;;;15.10;99.90;;;;;;5016726;28;20312;-72
2022/06/02 03:29:01;;;;;;;9.43;7.45;;;15.00;99.90;;;;;;5002583;28;20326;-71
2022/06/02 03:32:07;;;;;;;9.98;8.00;;;15.00;99.90;;;;;;5009840;28;20242;-72
2022/06/02 03:35:02;;;;;;;8.60;7.53;;;14.90;99.90;;;;;;5003497;28;20267;-71
2022/06/02 03:38:03;;;;;;;10.05;7.80;;;14.70;99.90;;;;;;5013079;28;20218;-71
2022/06/02 03:41:11;;;;;;;9.40;8.38;;;14.60;99.90;;;;;;5016411;28;20251;-70
2022/06/02 03:44:12;;;;;;;10.30;8.57;;;14.50;99.90;;;;;;5015495;28;20233;-70
2022/06/02 03:47:19;;;;;;;8.48;7.63;;;14.40;99.90;;;;;;4996362;28;20300;-70
2022/06/02 03:50:43;;;;;;;9.10;7.53;;;14.50;99.90;;;;;;4979639;28;20218;-72
2022/06/02 03:53:58;;;;;;;9.30;7.78;;;14.60;99.90;;;;;;4979957;28;20222;-68
2022/06/02 03:57:05;;;;;;;10.70;7.47;;;14.50;99.90;;;;;;4994875;28;20233;-70
2022/06/02 04:00:07;;;;;;;8.52;7.72;;;14.50;99.90;;;;;;4992319;28;20218;-70
2022/06/02 04:03:03;;;;;;;8.80;6.95;;;14.50;99.90;;;;;;4977854;28;20245;-71
2022/06/02 04:06:06;;;;;;;8.98;7.85;;;14.40;99.90;;;;;;5001344;28;20218;-71
2022/06/02 04:09:07;;;;;;;8.48;6.70;;;14.30;99.90;;;;;;4999939;28;20318;-71
2022/06/02 04:15:44;;;;;;;8.50;6.28;;;14.40;99.90;;;;;;4967664;28;20752;-72
2022/06/02 04:18:48;;;;;;;7.22;6.13;;;14.40;99.90;;;;;;4987943;28;20331;-72
2022/06/02 04:21:45;;;;;;;8.23;6.03;;;14.40;99.90;;;;;;4999082;28;20222;-72
2022/06/02 04:24:44;;;;;;;7.72;6.40;;;14.40;99.90;;;;;;4994432;28;20245;-69
2022/06/02 04:27:44;;;;;;;7.05;6.15;;;14.30;99.90;;;;;;4996803;28;20222;-70
2022/06/02 04:30:42;;;;;;;8.10;6.53;;;14.40;99.90;;;;;;4984668;28;20776;-70
2022/06/02 04:33:37;;;;;;;9.35;6.68;;;14.30;99.90;;;;;;5001165;28;20214;-70
2022/06/02 04:36:34;;;;;;;7.88;5.90;;;14.20;99.90;;;;;;4975870;28;20237;-70
2022/06/02 04:39:28;;;;;;;7.72;5.10;;;14.20;99.90;;;;;;4985843;28;20230;-70
2022/06/02 04:42:27;;;;;;;8.15;5.82;;;14.20;99.90;;;;;;4974570;28;20226;-70
2022/06/02 04:45:24;;;;;;;9.00;5.20;;;14.30;99.90;;;;;;4999482;28;20978;-70
2022/06/02 04:48:22;;;;;;;5.80;5.25;;;14.30;99.90;;;;;;5022336;28;20225;-70
2022/06/02 04:51:21;;;;;;;6.72;6.03;;;14.40;99.90;;;;;;5021280;28;20237;-69
2022/06/02 04:54:20;;;;;;;7.15;5.82;;;14.30;99.90;;;;;;5019517;28;20343;-70
2022/06/02 04:57:17;;;;;;;7.18;5.78;;;14.30;99.90;;;;;;5022807;28;20225;-70
2022/06/02 05:00:12;;;;;;;7.88;5.95;;;14.30;99.90;;;;;;5014002;28;20272;-70
2022/06/02 05:03:10;;;;;;;9.02;6.50;;;14.30;99.90;;;;;;5012981;28;20283;-71
2022/06/02 05:06:07;;;;;;;13.18;6.22;;;14.20;99.90;;;;;;5011396;28;20253;-70
2022/06/02 05:09:14;;;;;;;9.63;6.80;;;14.20;99.90;;;;;;5018139;28;20583;-71
2022/06/02 05:12:23;;;;;;;11.35;6.63;;;14.20;99.90;;;;;;5015507;28;20229;-72
2022/06/02 05:15:23;;;;;;;11.20;6.30;;;14.20;99.90;;;;;;5016407;28;20233;-72
2022/06/02 05:18:31;;;;;;;6.25;5.65;;;14.30;99.90;;;;;;5016355;28;20233;-71
2022/06/02 05:21:38;;;;;;;7.70;6.15;;;14.30;99.90;;;;;;5002636;28;20372;-71
2022/06/02 05:24:50;;;;;;;9.93;6.32;;;14.20;99.90;;;;;;5005895;28;20238;-71
2022/06/02 05:28:11;;;;;;;8.63;6.68;;;14.20;99.90;;;;;;5002378;28;20220;-73
2022/06/02 05:31:41;;;;;;;8.90;5.53;;;14.10;99.90;;;;;;5026294;28;20229;-71
2022/06/02 05:35:05;;;;;;;6.80;4.97;;;14.00;99.90;;;;;;4970671;28;20219;-70
2022/06/02 05:38:07;;;;;;;7.65;5.40;;;14.10;99.90;;;;;;5011460;28;20232;-71
2022/06/02 05:41:13;;;;;;;8.15;6.05;;;14.00;99.90;;;;;;5000937;28;20234;-69
2022/06/02 05:44:10;;;;;;;8.60;5.38;;;14.00;99.90;;;;;;5000783;28;20219;-69
2022/06/02 05:47:15;;;;;;;6.47;5.25;;;14.20;99.90;;;;;;5018121;28;20608;-70
2022/06/02 05:50:15;;;;;;;9.85;5.90;;;14.10;99.90;;;;;;5021436;28;20283;-71
2022/06/02 05:53:21;;;;;;;6.60;5.78;;;14.10;99.90;;;;;;5008825;28;20225;-69
2022/06/02 05:56:26;;;;;;;9.18;5.60;;;14.20;99.90;;;;;;5010288;28;20241;-69
2022/06/02 05:59:42;;;;;;;7.80;6.78;;;14.20;99.90;;;;;;5003496;28;20666;-71
2022/06/02 06:02:58;;;;;;;11.70;6.32;;;14.30;99.90;;;;;;5020079;28;20230;-71
2022/06/02 06:05:50;;;;;;;7.35;6.15;;;14.30;99.90;;;;;;5021065;28;20232;-69
2022/06/02 06:09:14;;;;;;;11.02;6.72;;;14.40;99.90;;;;;;5001641;28;20912;-71
2022/06/02 06:12:30;;;;;;;8.35;6.10;;;14.50;99.90;;;;;;4993430;28;20696;-73
2022/06/02 06:15:29;;;;;;;7.47;6.53;;;14.40;99.90;;;;;;5019692;28;20668;-72
2022/06/02 06:18:32;;;;;;;7.40;6.40;;;14.50;99.90;;;;;;5028608;28;20419;-71
2022/06/02 06:21:34;;;;;;;7.00;5.90;;;14.60;99.90;;;;;;5011207;28;20764;-72
2022/06/02 06:24:52;;;;;;;8.30;6.45;;;14.80;99.90;;;;;;5025764;28;20306;-73
2022/06/02 06:27:56;;;;;;;9.23;6.03;;;15.00;99.90;;;;;;5035868;28;20789;-73
2022/06/02 06:30:55;;;;;;;9.68;6.25;;;15.10;99.90;;;;;;5017802;28;20241;-73
2022/06/02 06:34:07;;;;;;;7.60;5.78;;;15.20;99.90;;;;;;5019891;28;20221;-71
2022/06/02 06:37:27;;;;;;;7.68;5.50;;;15.30;99.90;;;;;;5002075;28;20546;-73
2022/06/02 06:40:44;;;;;;;7.88;4.88;;;15.50;99.90;;;;;;5013215;28;20255;-76
2022/06/02 06:43:50;;;;;;;5.78;4.97;;;15.90;99.90;;;;;;5002520;28;20218;-74
2022/06/02 06:46:52;;;;;;;7.65;4.78;;;15.90;99.90;;;;;;4991795;28;20222;-71
2022/06/02 06:49:55;;;;;;;6.53;4.63;;;16.10;99.90;;;;;;4998968;28;20220;-71
2022/06/02 06:53:09;;;;;;;6.30;5.00;;;16.50;99.90;;;;;;4996599;28;20222;-72
2022/06/02 06:56:07;;;;;;;7.03;4.63;;;16.60;99.90;;;;;;5003180;28;20371;-72
2022/06/02 06:59:08;;;;;;;5.45;4.00;;;16.70;99.90;;;;;;4995878;28;20700;-71
2022/06/02 07:02:06;;;;;;;5.47;4.60;;;16.70;99.90;;;;;;4988064;28;20295;-70
2022/06/02 07:05:02;;;;;;;5.22;4.00;;;17.10;99.90;;;;;;5008654;28;20276;-71
2022/06/02 07:08:00;;;;;;;5.05;4.25;;;17.40;99.90;;;;;;5004860;28;20598;-71
2022/06/02 07:10:54;;;;;;;5.38;4.03;;;17.90;99.90;;;;;;5004595;28;20306;-70
2022/06/02 07:13:52;;;;;;;5.25;3.45;;;18.30;99.90;;;;;;5008015;28;20236;-72
2022/06/02 07:16:48;;;;;;;4.20;3.78;;;18.60;99.90;;;;;;5000328;28;20214;-72
2022/06/02 07:19:45;;;;;;;7.60;3.60;;;18.70;99.90;;;;;;5002659;28;20219;-71
2022/06/02 07:22:42;;;;;;;7.72;3.92;;;18.70;99.90;;;;;;5018925;28;20225;-70
2022/06/02 07:25:35;;;;;;;4.13;3.25;;;18.50;99.90;;;;;;5001332;28;20305;-72
2022/06/02 07:28:33;;;;;;;4.00;2.80;;;18.50;99.90;;;;;;5021196;28;20245;-71
2022/06/02 07:31:39;;;;;;;4.72;3.33;;;18.60;99.90;;;;;;4984737;28;20812;-71
2022/06/02 07:34:50;;;;;;;3.17;2.50;;;18.70;99.90;;;;;;4999278;28;20217;-70
2022/06/02 07:37:47;;;;;;;5.93;2.83;;;20.30;99.90;;;;;;4972071;28;20671;-71
2022/06/02 07:41:07;;;;;;;3.58;2.42;;;20.40;99.90;;;;;;5002009;28;20241;-72
2022/06/02 07:44:17;;;;;;;2.60;1.77;;;21.90;99.90;;;;;;4992174;28;20321;-71
2022/06/02 07:47:24;;;;;;;3.10;1.60;;;23.30;99.90;;;;;;5021899;28;20233;-71
2022/06/02 07:50:20;;;;;;;2.15;1.80;;;22.60;99.90;;;;;;5000547;28;20838;-70
2022/06/02 07:53:14;;;;;;;3.92;1.90;;;21.20;99.90;;;;;;5022686;28;20625;-71
2022/06/02 07:56:12;;;;;;;3.45;2.00;;;20.10;99.90;;;;;;5014653;28;20677;-72
2022/06/02 07:59:12;;;;;;;2.50;1.92;;;19.70;99.90;;;;;;5032765;28;20338;-72
2022/06/02 08:02:38;;;;;;;2.53;2.33;;;18.90;99.90;;;;;;5020038;28;20221;-73
2022/06/02 08:05:39;;;;;;;5.28;2.83;;;19.00;99.90;;;;;;5021436;28;20394;-72
2022/06/02 08:08:33;;;;;;;3.20;2.60;;;19.90;99.90;;;;;;5020840;28;20235;-71
2022/06/02 08:11:29;;;;;;;5.00;3.00;;;19.20;99.90;;;;;;5010754;28;20311;-70
2022/06/02 08:14:28;;;;;;;4.47;2.70;;;18.70;99.90;;;;;;5031198;28;20222;-70
2022/06/02 08:17:23;;;;;;;3.33;2.97;;;18.20;99.90;;;;;;5006787;28;20718;-72
2022/06/02 08:20:50;;;;;;;4.07;3.67;;;18.00;99.90;;;;;;5018457;28;20296;-71
2022/06/02 08:24:24;;;;;;;4.20;3.63;;;18.00;99.90;;;;;;5020872;28;20746;-71
2022/06/02 08:27:40;;;;;;;4.97;4.05;;;17.90;99.90;;;;;;5004792;28;20265;-71
2022/06/02 08:30:44;;;;;;;4.93;4.07;;;17.60;99.90;;;;;;5004587;28;20241;-71
2022/06/02 08:33:43;;;;;;;7.15;4.65;;;17.60;99.90;;;;;;5009172;28;20237;-71
2022/06/02 08:36:40;;;;;;;6.72;4.53;;;17.70;99.90;;;;;;5018811;28;20222;-71
2022/06/02 08:39:41;;;;;;;4.93;4.28;;;18.00;99.90;;;;;;5022005;28;20216;-71
2022/06/02 08:43:08;;;;;;;6.50;3.88;;;18.40;99.90;;;;;;5024557;28;20311;-71
2022/06/02 08:46:32;;;;;;;5.18;3.97;;;18.30;99.90;;;;;;4998860;28;20230;-71
2022/06/02 08:49:52;;;;;;;6.03;3.35;;;17.90;99.90;;;;;;4999069;28;20226;-71
2022/06/02 08:53:18;;;;;;;6.35;3.80;;;18.10;99.90;;;;;;4987243;28;20229;-73
2022/06/02 08:56:38;;;;;;;4.38;3.40;;;17.90;99.90;;;;;;4982505;28;20215;-70
2022/06/02 09:00:12;;;;;;;4.22;3.25;;;18.10;99.90;;;;;;5019105;28;20263;-71
2022/06/02 09:03:46;;;;;;;4.47;3.60;;;18.20;99.90;;;;;;5027029;28;20234;-71
2022/06/02 09:06:53;;;;;;;3.78;3.00;;;18.70;99.90;;;;;;5020013;28;20264;-71
2022/06/02 09:10:03;;;;;;;5.10;2.90;;;19.80;99.90;;;;;;5022013;28;20217;-70
2022/06/02 09:13:24;;;;;;;3.00;2.70;;;19.30;99.90;;;;;;5020710;28;20716;-72
2022/06/02 09:16:21;;;;;;;3.85;2.58;;;18.80;99.90;;;;;;5035300;28;20222;-71
2022/06/02 09:19:29;;;;;;;4.50;3.30;;;18.70;99.90;;;;;;5029589;28;20225;-71
2022/06/02 09:22:47;;;;;;;3.92;2.75;;;19.00;99.90;;;;;;5021406;28;20243;-72
2022/06/02 09:26:14;;;;;;;3.47;2.72;;;21.10;99.90;;;;;;5033623;28;20348;-70
2022/06/02 09:29:15;;;;;;;4.13;2.60;;;22.20;99.90;;;;;;5025315;28;20260;-71
2022/06/02 09:32:27;;;;;;;3.40;2.50;;;22.30;99.90;;;;;;5024915;28;21059;-71
2022/06/02 09:35:20;;;;;;;3.35;2.55;;;22.80;99.90;;;;;;5017227;28;20681;-72
2022/06/02 09:38:34;;;;;;;5.40;2.67;;;25.70;99.90;;;;;;5020934;28;20228;-71
2022/06/02 09:41:48;;;;;;;3.22;2.22;;;25.40;90.50;;;;;;5019559;28;20295;-73
2022/06/02 09:44:48;;;;;;;2.58;1.90;;;25.10;90.20;;;;;;5018635;28;20287;-72
2022/06/02 09:48:05;;;;;;;1.80;1.70;;;29.00;78.60;;;;;;5019924;28;20359;-72
2022/06/02 09:51:23;;;;;;;2.00;1.63;;;29.80;71.00;;;;;;5019745;28;20229;-74
2022/06/02 09:54:42;;;;;;;1.65;1.48;;;30.80;60.80;;;;;;5002779;28;20951;-72
2022/06/02 09:58:08;;;;;;;1.35;1.25;;;30.90;58.80;;;;;;5021358;28;20715;-74
2022/06/02 10:01:13;;;;;;;7.50;1.63;;;30.10;63.10;;;;;;5000837;28;20222;-73
2022/06/02 10:04:34;;;;;;;2.65;1.40;;;27.90;66.90;;;;;;5022311;28;20714;-75
2022/06/02 10:07:33;;;;;;;1.92;1.63;;;27.70;65.70;;;;;;5028800;28;20631;-73
2022/06/02 10:10:44;;;;;;;1.42;1.30;;;27.20;66.70;;;;;;5027627;28;20654;-73
2022/06/02 11:39:36;;;;;;;2.67;1.00;;;31.50;51.00;;;;;;5070878;27;20533;-74
2022/06/02 11:42:41;;;;;;;1.50;1.00;;;34.50;51.50;;;;;;5092551;28;20218;-74
2022/06/02 11:45:47;;;;;;;2.95;1.10;;;29.70;52.30;;;;;;5093041;28;20216;-73
2022/06/02 11:49:15;;;;;;;1.75;1.20;;;31.00;54.30;;;;;;5096298;28;20218;-73
2022/06/02 11:52:19;;;;;;;2.45;1.02;;;31.50;51.30;;;;;;5095407;28;20222;-74
2022/06/02 11:55:22;;;;;;;2.22;1.75;;;31.00;51.10;;;;;;5090625;28;20214;-73
2022/06/02 11:58:48;;;;;;;0.90;0.90;;;32.60;49.70;;;;;;5095695;28;20597;-74
2022/06/02 12:01:50;;;;;;;4.65;1.25;;;32.30;49.20;;;;;;5085433;28;20226;-74
2022/06/02 12:05:11;;;;;;;7.15;6.50;;;32.40;49.60;;;;;;5081756;28;20232;-74
2022/06/02 12:08:33;;;;;;;2.00;1.00;;;32.50;50.10;;;;;;5090731;28;20218;-73
2022/06/02 12:11:48;;;;;;;1.65;1.00;;;33.20;49.30;;;;;;5080165;28;20214;-74
2022/06/02 12:15:13;;;;;;;1.63;1.08;;;33.50;49.60;;;;;;5087030;28;20222;-73
2022/06/02 14:36:30;;;;;;;2.53;2.20;;;21.90;73.40;;;;;;5008412;28;20602;-73
2022/06/02 14:39:36;;;;;;;2.70;2.30;;;21.90;73.50;;;;;;4998635;28;20214;-74
2022/06/02 14:46:25;;;;;;;3.55;2.50;;;22.00;74.70;;;;;;4998733;28;20389;-75
2022/06/02 14:49:37;;;;;;;4.57;2.80;;;21.90;74.50;;;;;;4998590;28;20218;-73
2022/06/02 14:52:43;;;;;;;4.13;2.28;;;21.50;76.50;;;;;;5005203;28;20574;-75
2022/06/02 14:55:37;;;;;;;6.88;3.13;;;21.70;75.80;;;;;;5008290;28;20969;-75
2022/06/02 14:58:38;;;;;;;3.45;2.70;;;21.40;74.80;;;;;;5025699;28;20222;-73
2022/06/02 15:01:36;;;;;;;2.60;2.40;;;21.40;74.70;;;;;;5007674;28;20221;-74
2022/06/02 15:04:55;;;;;;;4.40;2.83;;;21.40;75.70;;;;;;4993614;28;20733;-73
2022/06/02 15:08:05;;;;;;;3.88;2.55;;;21.20;75.50;;;;;;5021511;28;20210;-73
2022/06/02 15:11:02;;;;;;;3.78;2.58;;;21.20;76.40;;;;;;5019181;28;20218;-74
2022/06/02 15:13:59;;;;;;;4.97;2.58;;;21.20;77.00;;;;;;5012957;28;20281;-74
2022/06/02 17:59:21;;;;;;;4.78;2.97;;;18.90;90.40;;;;;;5024410;27;20668;-72
2022/06/02 18:02:20;;;;;;;3.53;3.10;;;18.90;90.60;;;;;;5019059;28;20220;-73
2022/06/02 18:05:37;;;;;;;5.53;3.20;;;18.90;91.80;;;;;;5013856;28;20226;-71
2022/06/02 18:08:54;;;;;;;5.57;2.90;;;18.90;92.50;;;;;;4997414;28;20282;-74
2022/06/02 18:12:11;;;;;;;5.47;2.67;;;18.90;92.20;;;;;;5033079;28;20308;-70
2022/06/02 18:15:24;;;;;;;3.28;2.20;;;18.40;91.80;;;;;;5021264;28;20231;-72
2022/06/02 18:18:35;;;;;;;3.63;1.90;;;17.70;92.60;;;;;;5018379;28;20849;-70
2022/06/02 18:22:02;;;;;;;2.33;2.00;;;17.30;94.70;;;;;;5016416;28;20221;-70
2022/06/02 18:25:33;;;;;;;4.78;2.40;;;17.40;94.70;;;;;;5018723;28;20980;-70
2022/06/02 18:28:44;;;;;;;5.32;2.20;;;17.20;96.20;;;;;;5012054;28;20277;-70
2022/06/02 18:32:19;;;;;;;3.40;1.98;;;16.90;98.50;;;;;;5016605;28;20311;-71
2022/06/02 18:35:15;;;;;;;3.05;1.80;;;16.90;99.10;;;;;;5017046;28;20685;-72
2022/06/02 18:38:26;;;;;;;3.28;2.08;;;17.10;98.60;;;;;;5012880;28;20542;-70
2022/06/02 18:41:52;;;;;;;3.30;2.35;;;17.20;97.80;;;;;;5017856;28;20610;-71
2022/06/02 18:45:17;;;;;;;2.75;2.10;;;17.00;99.90;;;;;;5017325;28;20354;-69
2022/06/02 18:48:43;;;;;;;2.95;2.25;;;16.80;99.90;;;;;;5039385;28;20214;-71
2022/06/02 18:52:09;;;;;;;3.50;1.83;;;16.90;99.90;;;;;;5013020;28;20247;-71
2022/06/02 18:55:34;;;;;;;4.18;2.30;;;16.70;99.90;;;;;;5019033;28;20222;-71
2022/06/02 18:59:02;;;;;;;2.97;2.15;;;16.70;99.90;;;;;;5018368;28;20226;-69
2022/06/02 19:02:27;;;;;;;2.50;2.30;;;16.70;99.90;;;;;;5053402;28;20224;-71
2022/06/02 19:05:52;;;;;;;3.78;2.10;;;16.80;99.90;;;;;;5059886;28;20410;-71
2022/06/02 19:15:51;;;;;;;8.07;2.53;;;16.70;99.90;;;;;;5040020;28;20370;-72
2022/06/02 19:19:05;;;;;;;3.88;2.45;;;16.60;99.90;;;;;;5054380;28;20313;-70
2022/06/02 19:22:18;;;;;;;4.63;2.60;;;16.60;99.90;;;;;;5046135;28;22097;-71
2022/06/02 19:25:30;;;;;;;5.13;2.22;;;16.30;99.90;;;;;;5033991;28;20221;-72
2022/06/02 19:28:37;;;;;;;5.10;2.55;;;16.60;99.90;;;;;;5036638;28;20587;-71
2022/06/02 19:31:46;;;;;;;3.92;2.67;;;16.60;99.90;;;;;;5031923;28;20277;-72
2022/06/02 19:34:42;;;;;;;3.88;2.30;;;16.50;99.90;;;;;;5045105;28;20231;-72
2022/06/02 19:37:44;;;;;;;3.03;2.50;;;16.40;99.90;;;;;;5040681;28;20233;-72
2022/06/02 19:40:45;;;;;;;3.05;2.20;;;16.30;99.90;;;;;;5041681;28;20247;-72
2022/06/02 19:43:47;;;;;;;2.83;2.30;;;16.30;99.90;;;;;;5008529;28;20294;-72
2022/06/02 19:46:43;;;;;;;5.55;2.53;;;16.40;99.90;;;;;;5030187;28;20270;-72
2022/06/02 19:49:45;;;;;;;5.03;2.85;;;16.50;99.90;;;;;;5032963;28;20248;-72
2022/06/02 19:52:50;;;;;;;3.83;2.50;;;16.50;99.90;;;;;;5029455;28;20273;-72
2022/06/02 19:55:45;;;;;;;2.83;2.38;;;16.20;99.90;;;;;;5039748;28;20263;-72
2022/06/02 19:58:48;;;;;;;3.55;2.45;;;16.50;99.90;;;;;;5035670;28;20233;-71
2022/06/02 20:01:40;;;;;;;4.68;2.72;;;16.40;99.90;;;;;;5040371;28;20658;-71
2022/06/02 20:04:37;;;;;;;3.92;2.50;;;16.30;99.90;;;;;;5037929;28;20217;-72
2022/06/02 20:07:41;;;;;;;5.65;2.90;;;16.00;99.90;;;;;;5039805;28;20228;-72
2022/06/02 20:10:37;;;;;;;3.30;2.40;;;15.90;99.90;;;;;;5038614;28;20225;-68
2022/06/02 20:13:31;;;;;;;5.15;2.80;;;15.80;99.90;;;;;;5024068;28;20804;-70
2022/06/02 20:16:29;;;;;;;6.75;3.10;;;15.80;99.90;;;;;;5022626;28;20209;-70
2022/06/02 20:19:25;;;;;;;3.03;2.60;;;15.90;99.90;;;;;;5023020;28;20378;-72
2022/06/02 20:22:20;;;;;;;3.33;3.03;;;15.70;99.90;;;;;;5040099;28;20700;-72
2022/06/02 20:25:22;;;;;;;3.45;2.70;;;15.70;99.90;;;;;;5037786;28;20217;-70
2022/06/02 20:28:15;;;;;;;5.43;2.40;;;15.60;99.90;;;;;;5033161;28;20213;-72
2022/06/02 20:31:13;;;;;;;6.00;2.60;;;15.70;99.90;;;;;;5023166;28;20316;-72
2022/06/02 20:34:17;;;;;;;4.53;2.80;;;15.60;99.90;;;;;;5033422;28;20267;-72
2022/06/02 20:37:33;;;;;;;4.82;2.40;;;15.60;99.90;;;;;;5029120;28;20225;-72
2022/06/02 20:40:28;;;;;;;4.13;2.75;;;15.70;99.90;;;;;;4992672;28;20209;-72
2022/06/02 20:43:40;;;;;;;3.35;3.05;;;15.70;99.90;;;;;;5037190;28;20710;-72
2022/06/02 20:47:01;;;;;;;2.63;2.42;;;15.80;99.90;;;;;;5034387;28;20220;-73
2022/06/02 20:49:59;;;;;;;3.78;2.60;;;15.70;99.90;;;;;;5042236;28;20213;-73
2022/06/02 20:52:53;;;;;;;3.75;2.70;;;15.80;99.90;;;;;;5034793;28;20270;-72
2022/06/02 20:55:47;;;;;;;3.97;2.85;;;15.80;99.90;;;;;;5024945;28;20227;-72
2022/06/02 20:58:43;;;;;;;4.10;3.00;;;15.90;99.90;;;;;;5031444;28;20228;-72
2022/06/02 21:01:37;;;;;;;3.55;2.60;;;15.80;99.90;;;;;;5040261;28;20224;-73
2022/06/02 21:04:35;;;;;;;4.82;3.22;;;15.70;99.90;;;;;;5036677;28;20719;-73
2022/06/02 21:07:28;;;;;;;3.15;2.85;;;15.60;99.90;;;;;;5037508;28;21145;-71
2022/06/02 21:10:26;;;;;;;5.43;3.30;;;15.70;99.90;;;;;;5037373;28;21047;-70
2022/06/02 21:13:25;;;;;;;5.07;3.38;;;15.60;99.90;;;;;;5039474;28;20755;-71
2022/06/02 21:16:28;;;;;;;8.05;3.85;;;15.60;99.90;;;;;;5040068;28;20217;-71
2022/06/02 21:19:25;;;;;;;7.40;4.47;;;15.50;99.90;;;;;;5037196;28;20232;-72
2022/06/02 21:22:24;;;;;;;5.50;3.78;;;15.50;99.90;;;;;;5037893;28;20218;-73
2022/06/02 21:25:20;;;;;;;7.10;4.57;;;15.50;99.90;;;;;;5036671;28;20691;-73
2022/06/02 21:28:20;;;;;;;9.48;4.70;;;15.50;99.90;;;;;;5042817;28;20319;-72
2022/06/02 21:31:13;;;;;;;6.18;4.78;;;15.50;99.90;;;;;;5033662;28;20240;-72
2022/06/02 21:34:05;;;;;;;9.10;4.97;;;15.50;99.90;;;;;;5024083;28;20747;-73
2022/06/02 21:37:01;;;;;;;6.85;4.65;;;15.40;99.90;;;;;;5039812;28;20228;-72
2022/06/02 21:39:56;;;;;;;7.28;4.95;;;15.30;99.90;;;;;;5042576;28;20236;-72
2022/06/02 21:42:50;;;;;;;7.80;5.00;;;15.30;99.90;;;;;;5035667;28;20562;-73
2022/06/02 21:45:57;;;;;;;6.35;5.30;;;15.20;99.90;;;;;;5036407;28;20232;-71
2022/06/02 21:48:55;;;;;;;8.68;4.80;;;15.20;99.90;;;;;;5042659;28;20213;-71
2022/06/02 21:51:51;;;;;;;7.90;5.20;;;15.20;99.90;;;;;;5042050;28;20231;-74
2022/06/02 21:55:10;;;;;;;10.52;5.97;;;15.20;99.90;;;;;;5020840;28;20229;-72
2022/06/02 21:58:07;;;;;;;8.55;4.95;;;15.00;99.90;;;;;;5032138;28;20309;-72
2022/06/02 22:01:05;;;;;;;6.60;5.38;;;15.00;99.90;;;;;;5039708;28;20331;-74
2022/06/02 22:04:03;;;;;;;8.35;5.82;;;14.80;99.90;;;;;;5037184;28;20224;-74
2022/06/02 22:07:11;;;;;;;7.65;5.38;;;14.80;99.90;;;;;;5032286;28;20227;-75
2022/06/02 22:10:08;;;;;;;9.15;6.30;;;14.80;99.90;;;;;;5031986;28;20251;-72
2022/06/02 22:13:02;;;;;;;7.60;5.60;;;14.90;99.90;;;;;;5029239;28;20224;-71
2022/06/02 22:15:57;;;;;;;8.95;5.53;;;14.80;99.90;;;;;;5036256;28;20225;-72
2022/06/02 22:18:55;;;;;;;7.72;5.90;;;14.80;99.90;;;;;;5026530;28;20546;-72
2022/06/02 22:21:53;;;;;;;10.25;6.00;;;14.80;99.90;;;;;;5022312;28;20221;-71
2022/06/02 22:25:02;;;;;;;10.25;5.88;;;14.80;99.90;;;;;;5035159;28;20250;-71
2022/06/02 22:28:01;;;;;;;10.32;5.82;;;14.80;99.90;;;;;;5036108;28;20228;-72
2022/06/02 22:31:15;;;;;;;6.25;5.43;;;14.60;99.90;;;;;;5034497;28;20225;-72
2022/06/02 22:34:15;;;;;;;8.75;5.97;;;14.70;99.90;;;;;;5038312;28;20342;-72
2022/06/02 22:37:19;;;;;;;7.43;6.22;;;14.70;99.90;;;;;;5033466;28;20294;-73
2022/06/02 22:40:41;;;;;;;7.72;5.90;;;14.70;99.90;;;;;;5033394;28;20217;-72
2022/06/02 22:43:56;;;;;;;8.23;5.88;;;14.60;99.90;;;;;;5025142;28;20224;-71